Time;durP1;ratioP1;P1;durP2;ratioP2;P2;SDS_P1;SDS_P2;PMS_P1;PMS_P2;Temp;Humidity;BMP_temperature;BMP_pressure;BME280_temperature;BME280_humidity;BME280_pressure;Samples;Min_cycle;Max_cycle;Signal;HPM_P1;HPM_P2
2023/08/14 00:00:25;;;;;;;2.60;2.40;;;;;;;;;;5110186;28;20052;-66
2023/08/14 00:02:51;;;;;;;6.05;2.30;;;;;;;;;;5108313;28;20048;-66
2023/08/14 00:05:17;;;;;;;2.80;2.15;;;;;;;;;;5109323;28;20325;-66
2023/08/14 00:07:43;;;;;;;3.72;2.45;;;;;;;;;;5109756;28;20035;-66
2023/08/14 00:10:09;;;;;;;2.80;2.60;;;;;;;;;;5109811;28;20427;-66
2023/08/14 00:12:35;;;;;;;3.00;2.70;;;;;;;;;;5108853;28;20153;-66
2023/08/14 00:15:01;;;;;;;4.32;3.13;;;;;;;;;;5109560;28;20122;-66
2023/08/14 00:17:27;;;;;;;5.50;3.55;;;;;;;;;;5109637;28;20037;-66
2023/08/14 00:19:53;;;;;;;4.00;3.53;;;;;;;;;;5109241;28;20031;-66
2023/08/14 00:22:18;;;;;;;6.20;2.95;;;;;;;;;;5109874;28;20039;-66
2023/08/14 00:24:44;;;;;;;3.55;2.90;;;;;;;;;;5109503;28;20120;-66
2023/08/14 00:27:10;;;;;;;3.17;2.58;;;;;;;;;;5109256;28;20269;-66
2023/08/14 00:29:37;;;;;;;3.63;2.90;;;;;;;;;;5115981;28;20028;-66
2023/08/14 00:32:03;;;;;;;4.70;3.17;;;;;;;;;;5116230;28;20465;-66
2023/08/14 00:34:29;;;;;;;3.10;2.80;;;;;;;;;;5115611;28;20461;-66
2023/08/14 00:36:54;;;;;;;3.10;2.85;;;;;;;;;;5116370;28;20115;-66
2023/08/14 00:39:20;;;;;;;2.38;2.17;;;;;;;;;;5116469;28;20047;-66
2023/08/14 00:41:47;;;;;;;2.20;2.00;;;;;;;;;;5115920;28;20477;-66
2023/08/14 00:44:13;;;;;;;2.42;2.22;;;;;;;;;;5115811;28;20122;-66
2023/08/14 00:46:39;;;;;;;2.58;2.38;;;;;;;;;;5116314;28;20303;-66
2023/08/14 00:49:05;;;;;;;2.95;2.10;;;;;;;;;;5115458;28;20105;-66
2023/08/14 00:51:31;;;;;;;2.35;2.15;;;;;;;;;;5116220;28;20043;-66
2023/08/14 00:53:57;;;;;;;2.53;1.92;;;;;;;;;;5116084;28;20089;-66
2023/08/14 00:56:23;;;;;;;2.50;1.95;;;;;;;;;;5115990;28;20069;-66
2023/08/14 00:58:49;;;;;;;3.13;2.83;;;;;;;;;;5115905;28;20039;-66
2023/08/14 01:01:15;;;;;;;2.58;2.38;;;;;;;;;;5116083;28;20126;-66
2023/08/14 01:03:42;;;;;;;2.72;2.40;;;;;;;;;;5114221;28;20456;-66
2023/08/14 01:06:08;;;;;;;4.43;2.90;;;;;;;;;;5115907;28;20039;-66
2023/08/14 01:08:35;;;;;;;3.45;3.15;;;;;;;;;;5115839;28;20036;-66
2023/08/14 01:11:01;;;;;;;3.30;3.00;;;;;;;;;;5115687;28;20046;-66
2023/08/14 01:13:30;;;;;;;3.83;3.28;;;;;;;;;;5115900;28;20482;-66
2023/08/14 01:15:57;;;;;;;4.85;3.05;;;;;;;;;;5115931;28;20506;-66
2023/08/14 01:18:24;;;;;;;3.97;3.58;;;;;;;;;;5115488;28;20044;-66
2023/08/14 01:21:04;;;;;;;7.53;4.70;;;;;;;;;;5115851;28;20082;-66
2023/08/14 01:23:33;;;;;;;5.57;4.72;;;;;;;;;;5115777;28;20039;-66
2023/08/14 01:26:00;;;;;;;5.57;5.05;;;;;;;;;;5115178;28;20035;-66
2023/08/14 01:28:27;;;;;;;9.68;4.93;;;;;;;;;;5115770;28;20031;-66
2023/08/14 01:30:54;;;;;;;7.47;4.70;;;;;;;;;;5115774;28;20032;-66
2023/08/14 01:33:20;;;;;;;6.05;5.05;;;;;;;;;;5115182;28;20134;-66
2023/08/14 01:35:51;;;;;;;6.88;4.82;;;;;;;;;;5115696;28;20443;-66
2023/08/14 01:38:24;;;;;;;7.35;5.72;;;;;;;;;;5115826;28;20055;-66
2023/08/14 01:40:57;;;;;;;7.40;5.45;;;;;;;;;;5111288;28;20040;-66
2023/08/14 01:43:25;;;;;;;8.98;5.68;;;;;;;;;;5112261;28;20047;-66
2023/08/14 01:45:52;;;;;;;7.25;5.07;;;;;;;;;;5112369;28;20118;-66
2023/08/14 01:48:21;;;;;;;5.78;5.15;;;;;;;;;;5111934;28;20047;-66
2023/08/14 01:50:48;;;;;;;7.18;5.88;;;;;;;;;;5112435;28;20379;-66
2023/08/14 01:53:16;;;;;;;7.80;5.15;;;;;;;;;;5112268;28;20040;-66
2023/08/14 01:55:42;;;;;;;7.57;5.35;;;;;;;;;;5111903;28;20048;-66
2023/08/14 01:58:08;;;;;;;5.85;5.20;;;;;;;;;;5112153;28;20606;-66
2023/08/14 02:00:36;;;;;;;6.95;5.30;;;;;;;;;;5112350;28;20031;-66
2023/08/14 02:03:02;;;;;;;6.80;6.00;;;;;;;;;;5111632;28;20043;-66
2023/08/14 02:05:28;;;;;;;8.25;5.30;;;;;;;;;;5111679;28;20126;-66
2023/08/14 02:07:54;;;;;;;6.95;5.80;;;;;;;;;;5111686;28;20119;-66
2023/08/14 02:10:20;;;;;;;7.32;6.43;;;;;;;;;;5110258;28;20190;-66
2023/08/14 02:12:46;;;;;;;8.68;6.30;;;;;;;;;;5110319;28;20055;-66
2023/08/14 02:15:12;;;;;;;6.70;5.72;;;;;;;;;;5111819;28;20043;-66
2023/08/14 02:17:38;;;;;;;7.25;5.70;;;;;;;;;;5111443;28;20170;-66
2023/08/14 02:20:04;;;;;;;7.00;6.03;;;;;;;;;;5111652;28;20046;-66
2023/08/14 02:22:30;;;;;;;8.40;6.75;;;;;;;;;;5111830;28;20490;-66
2023/08/14 02:24:56;;;;;;;8.40;6.80;;;;;;;;;;5110621;28;20054;-66
2023/08/14 02:27:22;;;;;;;7.00;6.10;;;;;;;;;;5123967;27;20485;-66
2023/08/14 02:29:48;;;;;;;9.35;6.65;;;;;;;;;;5124091;27;20402;-66
2023/08/14 02:32:14;;;;;;;8.77;6.78;;;;;;;;;;5090602;28;20036;-66
2023/08/14 02:34:48;;;;;;;8.18;6.45;;;;;;;;;;5090878;28;20454;-66
2023/08/14 02:37:15;;;;;;;9.40;6.15;;;;;;;;;;5091274;28;20055;-66
2023/08/14 02:39:41;;;;;;;11.05;6.68;;;;;;;;;;5090559;28;20040;-66
2023/08/14 02:42:08;;;;;;;7.03;5.88;;;;;;;;;;5090886;28;20051;-66
2023/08/14 02:44:34;;;;;;;6.80;5.75;;;;;;;;;;5090986;28;20123;-66
2023/08/14 02:47:00;;;;;;;7.70;5.97;;;;;;;;;;5123365;27;20048;-66
2023/08/14 02:49:26;;;;;;;6.50;5.22;;;;;;;;;;5090949;28;20380;-66
2023/08/14 02:51:52;;;;;;;6.70;5.78;;;;;;;;;;5090782;28;20110;-66
2023/08/14 02:54:18;;;;;;;6.85;5.40;;;;;;;;;;5090438;28;20044;-66
2023/08/14 02:56:44;;;;;;;5.82;5.18;;;;;;;;;;5090407;28;20051;-66
2023/08/14 02:59:10;;;;;;;6.50;5.55;;;;;;;;;;5090723;28;20082;-66
2023/08/14 03:01:37;;;;;;;6.47;5.78;;;;;;;;;;5090315;28;20062;-66
2023/08/14 03:04:03;;;;;;;7.00;5.05;;;;;;;;;;5090647;28;20039;-66
2023/08/14 03:06:31;;;;;;;6.50;5.82;;;;;;;;;;5090777;28;20131;-66
2023/08/14 03:08:57;;;;;;;7.40;6.50;;;;;;;;;;5103302;28;20088;-66
2023/08/14 03:11:23;;;;;;;7.10;6.40;;;;;;;;;;5110859;28;20412;-66
2023/08/14 03:13:49;;;;;;;6.95;6.25;;;;;;;;;;5110177;28;20063;-66
2023/08/14 03:16:15;;;;;;;9.32;6.80;;;;;;;;;;5110337;28;20036;-66
2023/08/14 03:18:42;;;;;;;9.20;7.43;;;;;;;;;;5110637;28;20370;-66
2023/08/14 03:21:08;;;;;;;10.23;6.57;;;;;;;;;;5110579;28;20039;-66
2023/08/14 03:23:34;;;;;;;8.55;6.70;;;;;;;;;;5109798;28;20039;-66
2023/08/14 03:26:01;;;;;;;10.73;7.45;;;;;;;;;;5101061;28;20433;-66
2023/08/14 03:28:27;;;;;;;11.27;7.60;;;;;;;;;;5089798;28;20437;-66
2023/08/14 03:30:53;;;;;;;7.72;6.82;;;;;;;;;;5089587;28;20039;-66
2023/08/14 03:33:19;;;;;;;9.32;6.88;;;;;;;;;;5089934;28;20035;-66
2023/08/14 03:35:45;;;;;;;8.90;7.50;;;;;;;;;;5090039;28;20044;-66
2023/08/14 03:38:11;;;;;;;13.15;8.07;;;;;;;;;;5089857;28;20044;-66
2023/08/14 03:40:37;;;;;;;8.93;6.80;;;;;;;;;;5090176;28;20600;-66
2023/08/14 03:43:03;;;;;;;7.60;6.53;;;;;;;;;;5089877;28;20065;-66
2023/08/14 03:45:29;;;;;;;8.95;7.03;;;;;;;;;;5089540;28;20066;-66
2023/08/14 03:47:55;;;;;;;7.95;6.68;;;;;;;;;;5089530;28;20363;-66
2023/08/14 03:50:21;;;;;;;8.90;6.18;;;;;;;;;;5089744;28;20036;-66
2023/08/14 03:52:48;;;;;;;6.68;5.78;;;;;;;;;;5089559;28;20093;-66
2023/08/14 03:55:15;;;;;;;8.18;6.78;;;;;;;;;;5089145;28;20049;-66
2023/08/14 03:57:41;;;;;;;8.43;6.65;;;;;;;;;;5089701;28;20075;-66
2023/08/14 04:00:08;;;;;;;6.72;6.00;;;;;;;;;;5089604;28;20067;-66
2023/08/14 04:02:34;;;;;;;7.40;5.90;;;;;;;;;;5088652;28;20040;-66
2023/08/14 04:05:00;;;;;;;7.65;6.88;;;;;;;;;;5089391;28;20093;-66
2023/08/14 04:07:25;;;;;;;9.07;7.07;;;;;;;;;;5089890;28;20394;-66
2023/08/14 04:09:51;;;;;;;9.02;7.38;;;;;;;;;;5109394;28;20122;-66
2023/08/14 04:12:17;;;;;;;8.10;7.05;;;;;;;;;;5109286;28;20036;-66
2023/08/14 04:14:44;;;;;;;11.30;7.50;;;;;;;;;;5109582;28;20263;-66
2023/08/14 04:17:10;;;;;;;9.98;7.50;;;;;;;;;;5109720;28;20050;-66
2023/08/14 04:19:36;;;;;;;8.65;7.18;;;;;;;;;;5109322;28;20039;-66
2023/08/14 04:22:02;;;;;;;8.13;7.32;;;;;;;;;;5109409;28;20036;-66
2023/08/14 04:24:28;;;;;;;8.18;6.35;;;;;;;;;;5108962;28;20050;-66
2023/08/14 04:26:54;;;;;;;7.25;6.55;;;;;;;;;;5093036;28;20048;-67
2023/08/14 04:29:20;;;;;;;8.80;7.32;;;;;;;;;;5106543;28;20051;-66
2023/08/14 04:31:46;;;;;;;9.82;7.22;;;;;;;;;;5090256;28;20122;-66
2023/08/14 04:34:12;;;;;;;9.77;7.65;;;;;;;;;;5091395;28;20047;-66
2023/08/14 04:36:38;;;;;;;8.93;8.02;;;;;;;;;;5091183;28;20039;-66
2023/08/14 04:39:04;;;;;;;9.70;8.15;;;;;;;;;;5123620;28;20050;-66
2023/08/14 04:41:31;;;;;;;10.45;8.45;;;;;;;;;;5090799;28;20051;-66
2023/08/14 04:43:57;;;;;;;10.02;8.63;;;;;;;;;;5090980;28;20036;-66
2023/08/14 04:46:29;;;;;;;10.70;8.48;;;;;;;;;;5091686;28;20036;-66
2023/08/14 04:48:55;;;;;;;12.38;8.50;;;;;;;;;;5109786;28;20386;-66
2023/08/14 04:51:21;;;;;;;13.20;9.63;;;;;;;;;;5111449;28;20485;-66
2023/08/14 04:53:47;;;;;;;10.77;9.57;;;;;;;;;;5109475;28;20046;-67
2023/08/14 04:56:13;;;;;;;11.45;10.25;;;;;;;;;;5110862;28;20044;-67
2023/08/14 04:58:39;;;;;;;10.25;8.95;;;;;;;;;;5111361;28;20065;-67
2023/08/14 05:01:06;;;;;;;17.13;10.73;;;;;;;;;;5110811;28;20036;-67
2023/08/14 05:03:32;;;;;;;15.77;10.75;;;;;;;;;;5111023;28;20059;-67
2023/08/14 05:05:58;;;;;;;12.32;10.57;;;;;;;;;;5111234;28;20040;-67
2023/08/14 05:08:24;;;;;;;12.98;10.80;;;;;;;;;;5110871;28;20113;-66
2023/08/14 05:10:51;;;;;;;21.27;11.73;;;;;;;;;;5111402;28;20420;-66
2023/08/14 05:13:17;;;;;;;16.95;11.77;;;;;;;;;;5110966;28;20551;-66
2023/08/14 05:15:43;;;;;;;16.50;11.30;;;;;;;;;;5111500;28;20044;-66
2023/08/14 05:18:09;;;;;;;18.17;11.35;;;;;;;;;;5115240;28;20135;-66
2023/08/14 05:20:36;;;;;;;17.55;12.65;;;;;;;;;;5115102;28;20544;-66
2023/08/14 05:23:02;;;;;;;17.33;12.32;;;;;;;;;;5114672;28;20049;-66
2023/08/14 05:25:28;;;;;;;16.05;12.75;;;;;;;;;;5114826;28;20039;-66
2023/08/14 05:27:54;;;;;;;17.40;12.68;;;;;;;;;;5114713;28;20039;-66
2023/08/14 05:30:20;;;;;;;16.55;13.02;;;;;;;;;;5114188;28;20082;-66
2023/08/14 05:32:47;;;;;;;20.02;13.30;;;;;;;;;;5114878;28;20040;-66
2023/08/14 05:35:15;;;;;;;20.10;14.10;;;;;;;;;;5114890;28;20048;-66
2023/08/14 05:37:41;;;;;;;21.10;14.82;;;;;;;;;;5114822;28;20047;-66
2023/08/14 05:40:08;;;;;;;21.60;15.98;;;;;;;;;;5115169;28;20481;-66
2023/08/14 05:42:34;;;;;;;24.98;15.43;;;;;;;;;;5114788;28;20039;-66
2023/08/14 05:45:00;;;;;;;22.77;16.33;;;;;;;;;;5114261;28;20040;-66
2023/08/14 05:47:26;;;;;;;20.48;15.65;;;;;;;;;;5114635;28;20067;-66
2023/08/14 05:49:53;;;;;;;22.13;15.07;;;;;;;;;;5113515;28;20054;-66
2023/08/14 05:52:19;;;;;;;23.42;16.27;;;;;;;;;;5114776;28;20450;-66
2023/08/14 05:54:46;;;;;;;24.58;15.38;;;;;;;;;;5113496;28;20046;-66
2023/08/14 05:57:12;;;;;;;23.73;17.27;;;;;;;;;;5114753;28;20043;-66
2023/08/14 05:59:38;;;;;;;25.00;18.15;;;;;;;;;;5113402;28;20118;-66
2023/08/14 06:02:04;;;;;;;24.10;17.52;;;;;;;;;;5113125;28;20047;-66
2023/08/14 06:04:30;;;;;;;23.60;16.33;;;;;;;;;;5113890;28;20044;-66
2023/08/14 06:06:56;;;;;;;28.98;19.25;;;;;;;;;;5114027;28;20477;-66
2023/08/14 06:09:22;;;;;;;28.98;18.35;;;;;;;;;;5097492;28;20032;-66
2023/08/14 06:11:48;;;;;;;21.98;16.30;;;;;;;;;;5094217;28;20111;-66
2023/08/14 06:14:14;;;;;;;26.40;18.48;;;;;;;;;;5093527;28;20052;-66
2023/08/14 06:16:41;;;;;;;22.92;16.88;;;;;;;;;;5127136;27;20052;-66
2023/08/14 06:19:08;;;;;;;27.05;18.30;;;;;;;;;;5094471;28;20478;-66
2023/08/14 06:21:34;;;;;;;25.60;18.27;;;;;;;;;;5093740;28;20048;-66
2023/08/14 06:24:00;;;;;;;27.67;19.20;;;;;;;;;;5096755;28;20393;-66
2023/08/14 06:26:26;;;;;;;28.48;18.27;;;;;;;;;;5112925;28;20051;-66
2023/08/14 06:28:52;;;;;;;24.10;16.15;;;;;;;;;;5112900;28;20733;-66
2023/08/14 06:31:19;;;;;;;26.30;15.38;;;;;;;;;;5128148;27;20043;-66
2023/08/14 06:33:46;;;;;;;25.63;17.95;;;;;;;;;;5133088;27;20508;-66
2023/08/14 06:36:12;;;;;;;28.20;17.23;;;;;;;;;;5113144;28;20043;-66
2023/08/14 06:38:38;;;;;;;27.25;16.75;;;;;;;;;;5122335;27;20389;-66
2023/08/14 06:41:04;;;;;;;25.58;17.13;;;;;;;;;;5134045;27;20100;-67
2023/08/14 06:43:31;;;;;;;23.60;17.65;;;;;;;;;;5112385;27;20051;-65
2023/08/14 06:45:57;;;;;;;24.23;17.00;;;;;;;;;;5116572;27;20039;-65
2023/08/14 06:48:23;;;;;;;23.48;16.90;;;;;;;;;;5133649;27;20445;-65
2023/08/14 06:50:50;;;;;;;27.33;17.63;;;;;;;;;;5125309;27;20040;-65
2023/08/14 06:53:16;;;;;;;26.25;17.75;;;;;;;;;;5112978;28;20040;-66
2023/08/14 06:55:46;;;;;;;24.88;16.92;;;;;;;;;;5130017;27;20054;-65
2023/08/14 06:58:12;;;;;;;25.85;17.45;;;;;;;;;;5132213;27;20089;-65
2023/08/14 07:00:38;;;;;;;25.10;16.40;;;;;;;;;;5133725;27;20385;-66
2023/08/14 07:03:04;;;;;;;24.50;17.08;;;;;;;;;;5132404;27;20036;-66
2023/08/14 07:05:30;;;;;;;27.85;19.00;;;;;;;;;;5132403;27;20049;-65
2023/08/14 07:07:56;;;;;;;27.98;18.08;;;;;;;;;;5126247;27;20501;-65
2023/08/14 07:10:22;;;;;;;28.10;19.50;;;;;;;;;;5118159;27;20031;-65
2023/08/14 07:12:48;;;;;;;29.63;20.88;;;;;;;;;;5132443;27;20602;-65
2023/08/14 07:15:14;;;;;;;23.05;17.55;;;;;;;;;;5132634;27;20114;-65
2023/08/14 07:17:40;;;;;;;21.58;16.08;;;;;;;;;;5133483;27;20047;-65
2023/08/14 07:20:06;;;;;;;27.58;19.63;;;;;;;;;;5133141;27;20150;-65
2023/08/14 07:22:32;;;;;;;25.60;19.55;;;;;;;;;;5131787;27;20126;-65
2023/08/14 07:24:59;;;;;;;26.63;18.98;;;;;;;;;;5131775;27;20500;-65
2023/08/14 07:27:25;;;;;;;27.48;16.67;;;;;;;;;;5123280;27;20051;-66
2023/08/14 07:29:51;;;;;;;22.15;16.52;;;;;;;;;;5132389;27;20046;-66
2023/08/14 07:32:17;;;;;;;27.52;20.50;;;;;;;;;;5111132;28;20580;-66
2023/08/14 07:34:43;;;;;;;29.63;20.10;;;;;;;;;;5116962;27;20392;-65
2023/08/14 07:37:09;;;;;;;19.70;13.40;;;;;;;;;;5132957;27;20118;-66
2023/08/14 07:39:35;;;;;;;22.75;16.15;;;;;;;;;;5133821;27;20039;-66
2023/08/14 07:42:01;;;;;;;22.27;14.88;;;;;;;;;;5132865;27;20046;-66
2023/08/14 07:44:27;;;;;;;23.67;14.85;;;;;;;;;;5113324;28;20036;-66
2023/08/14 07:46:53;;;;;;;30.58;18.42;;;;;;;;;;5120464;27;20066;-65
2023/08/14 07:49:19;;;;;;;26.95;18.05;;;;;;;;;;5132341;27;20118;-65
2023/08/14 07:51:45;;;;;;;30.48;18.80;;;;;;;;;;5131744;27;20123;-66
2023/08/14 07:54:11;;;;;;;17.77;11.95;;;;;;;;;;5131541;27;20049;-65
2023/08/14 07:56:37;;;;;;;14.63;10.30;;;;;;;;;;5132438;27;20043;-66
2023/08/14 07:59:05;;;;;;;17.50;11.73;;;;;;;;;;5131717;27;20043;-66
2023/08/14 08:01:31;;;;;;;16.88;11.45;;;;;;;;;;5132027;27;20043;-66
2023/08/14 08:03:57;;;;;;;19.23;12.27;;;;;;;;;;5131609;27;20043;-65
2023/08/14 08:06:24;;;;;;;25.77;15.82;;;;;;;;;;5131704;27;20039;-67
2023/08/14 08:08:50;;;;;;;19.63;11.40;;;;;;;;;;5119764;27;20039;-66
2023/08/14 08:11:16;;;;;;;19.75;15.32;;;;;;;;;;5122346;27;20088;-65
2023/08/14 08:13:42;;;;;;;13.23;10.48;;;;;;;;;;5131125;27;20478;-65
2023/08/14 08:16:08;;;;;;;16.48;10.13;;;;;;;;;;5131430;27;20043;-65
2023/08/14 08:18:35;;;;;;;14.20;9.25;;;;;;;;;;5131221;27;20043;-66
2023/08/14 08:21:01;;;;;;;10.55;7.38;;;;;;;;;;5131792;27;20031;-66
2023/08/14 08:23:27;;;;;;;12.82;9.07;;;;;;;;;;5131579;27;20039;-66
2023/08/14 08:25:53;;;;;;;11.70;7.00;;;;;;;;;;5123425;27;20077;-66
2023/08/14 08:28:19;;;;;;;10.98;7.30;;;;;;;;;;5129598;28;20055;-66
2023/08/14 08:30:45;;;;;;;9.52;7.00;;;;;;;;;;5131640;27;20042;-66
2023/08/14 08:33:11;;;;;;;12.30;5.93;;;;;;;;;;5132135;27;20392;-65
2023/08/14 08:35:37;;;;;;;14.05;5.93;;;;;;;;;;5118681;27;20042;-66
2023/08/14 08:38:03;;;;;;;8.75;5.28;;;;;;;;;;5111402;28;20039;-66
2023/08/14 08:40:30;;;;;;;12.05;6.00;;;;;;;;;;5132154;27;20122;-66
2023/08/14 08:42:56;;;;;;;7.88;4.47;;;;;;;;;;5131471;27;20046;-66
2023/08/14 08:45:23;;;;;;;9.23;4.53;;;;;;;;;;5131614;27;20071;-66
2023/08/14 08:47:51;;;;;;;7.68;4.53;;;;;;;;;;5129910;27;20444;-66
2023/08/14 08:50:17;;;;;;;8.57;4.22;;;;;;;;;;5134338;27;20035;-66
2023/08/14 08:52:43;;;;;;;7.35;4.15;;;;;;;;;;5135700;27;20042;-66
2023/08/14 08:55:09;;;;;;;9.73;4.57;;;;;;;;;;5135679;27;20118;-67
2023/08/14 08:57:35;;;;;;;10.07;4.40;;;;;;;;;;5135471;27;20046;-67
2023/08/14 09:00:02;;;;;;;7.20;4.53;;;;;;;;;;5135254;27;20485;-67
2023/08/14 09:02:29;;;;;;;5.68;3.85;;;;;;;;;;5135564;27;20110;-66
2023/08/14 09:04:55;;;;;;;9.40;4.57;;;;;;;;;;5135186;27;20436;-66
2023/08/14 09:07:21;;;;;;;9.50;4.72;;;;;;;;;;5134917;27;20049;-67
2023/08/14 09:09:47;;;;;;;9.73;4.40;;;;;;;;;;5114963;27;20035;-67
2023/08/14 09:12:13;;;;;;;10.57;4.28;;;;;;;;;;5131502;27;20496;-67
2023/08/14 09:14:59;;;;;;;7.90;3.92;;;;;;;;;;5135185;27;20062;-67
2023/08/14 09:17:25;;;;;;;9.82;4.38;;;;;;;;;;5134079;27;20495;-67
2023/08/14 09:19:51;;;;;;;13.25;4.13;;;;;;;;;;5134568;27;20125;-66
2023/08/14 09:22:18;;;;;;;7.38;3.70;;;;;;;;;;5135171;27;20043;-66
2023/08/14 09:24:44;;;;;;;6.55;3.55;;;;;;;;;;5134843;27;20035;-66
2023/08/14 09:27:10;;;;;;;8.23;3.40;;;;;;;;;;5123521;27;20118;-66
2023/08/14 09:29:36;;;;;;;7.95;4.00;;;;;;;;;;5135834;27;20078;-67
2023/08/14 09:32:02;;;;;;;9.77;3.47;;;;;;;;;;5135062;27;20038;-67
2023/08/14 09:34:30;;;;;;;6.68;3.03;;;;;;;;;;5133906;27;20387;-66
2023/08/14 09:36:57;;;;;;;9.57;3.22;;;;;;;;;;5135467;27;20046;-65
2023/08/14 09:39:26;;;;;;;8.20;3.10;;;;;;;;;;5134381;27;20517;-65
2023/08/14 09:41:52;;;;;;;7.18;3.13;;;;;;;;;;5134834;27;20108;-66
2023/08/14 09:44:21;;;;;;;8.48;3.10;;;;;;;;;;5134336;27;20047;-66
2023/08/14 09:46:49;;;;;;;7.72;2.85;;;;;;;;;;5134097;27;20043;-65
2023/08/14 09:49:17;;;;;;;5.03;2.40;;;;;;;;;;5134856;27;20039;-65
2023/08/14 09:51:43;;;;;;;4.60;2.08;;;;;;;;;;5135444;27;20479;-65
2023/08/14 09:54:09;;;;;;;6.35;2.25;;;;;;;;;;5135029;27;20039;-66
2023/08/14 09:56:35;;;;;;;7.03;2.47;;;;;;;;;;5134425;27;20046;-65
2023/08/14 09:59:01;;;;;;;6.28;2.28;;;;;;;;;;5134955;27;20090;-66
2023/08/14 10:01:27;;;;;;;6.40;2.97;;;;;;;;;;5133582;27;20035;-65
2023/08/14 10:03:55;;;;;;;8.10;2.33;;;;;;;;;;5133646;27;20042;-65
2023/08/14 10:06:24;;;;;;;4.75;1.73;;;;;;;;;;5115531;27;20039;-65
2023/08/14 10:08:55;;;;;;;3.83;1.80;;;;;;;;;;5121045;27;20043;-65
2023/08/14 10:11:23;;;;;;;3.03;1.55;;;;;;;;;;5121638;27;20039;-64
2023/08/14 10:13:52;;;;;;;6.57;1.90;;;;;;;;;;5134156;27;20051;-66
2023/08/14 10:16:25;;;;;;;6.38;1.60;;;;;;;;;;5133893;27;20677;-65
2023/08/14 10:18:56;;;;;;;5.55;1.83;;;;;;;;;;5133887;27;20042;-67
2023/08/14 10:21:26;;;;;;;7.50;1.77;;;;;;;;;;5134224;27;20050;-66
2023/08/14 10:23:52;;;;;;;5.82;2.00;;;;;;;;;;5133759;27;20049;-65
2023/08/14 10:26:18;;;;;;;6.40;1.98;;;;;;;;;;5122790;27;20465;-65
2023/08/14 10:28:44;;;;;;;6.97;2.33;;;;;;;;;;5133191;27;20075;-66
2023/08/14 10:31:11;;;;;;;6.18;1.83;;;;;;;;;;5134187;27;20362;-66
2023/08/14 10:33:38;;;;;;;5.50;1.77;;;;;;;;;;5133759;27;20035;-66
2023/08/14 10:36:04;;;;;;;6.05;2.08;;;;;;;;;;5133798;27;20039;-66
2023/08/14 10:38:46;;;;;;;4.13;1.88;;;;;;;;;;5134282;27;20572;-66
2023/08/14 10:41:14;;;;;;;6.82;1.90;;;;;;;;;;5134081;27;20122;-66
2023/08/14 10:43:40;;;;;;;5.88;1.45;;;;;;;;;;5134121;27;20111;-66
2023/08/14 10:46:10;;;;;;;6.57;1.75;;;;;;;;;;5133847;27;20047;-66
2023/08/14 10:48:36;;;;;;;2.95;1.42;;;;;;;;;;5133767;27;20532;-66
2023/08/14 10:51:02;;;;;;;3.22;1.80;;;;;;;;;;5133745;27;20050;-66
2023/08/14 10:53:31;;;;;;;3.50;1.30;;;;;;;;;;5134310;27;20043;-66
2023/08/14 10:55:58;;;;;;;6.22;1.60;;;;;;;;;;5130860;27;20078;-66
2023/08/14 10:58:35;;;;;;;3.70;1.63;;;;;;;;;;5132888;27;20096;-66
2023/08/14 11:01:11;;;;;;;3.28;1.52;;;;;;;;;;5132873;27;20499;-66
2023/08/14 11:03:56;;;;;;;3.63;1.42;;;;;;;;;;5133139;27;20489;-66
2023/08/14 11:06:28;;;;;;;9.32;1.63;;;;;;;;;;5110142;27;20124;-66
2023/08/14 11:08:58;;;;;;;5.18;1.60;;;;;;;;;;5112210;27;20058;-66
2023/08/14 11:11:25;;;;;;;4.97;1.60;;;;;;;;;;5127121;27;20046;-66
2023/08/14 11:13:52;;;;;;;6.88;1.88;;;;;;;;;;5133385;27;20051;-66
2023/08/14 11:16:19;;;;;;;5.65;2.03;;;;;;;;;;5130831;27;20474;-67
2023/08/14 11:18:46;;;;;;;6.82;1.73;;;;;;;;;;5123686;27;20043;-66
2023/08/14 11:21:12;;;;;;;4.38;1.75;;;;;;;;;;5124721;27;20400;-67
2023/08/14 11:23:38;;;;;;;5.88;1.90;;;;;;;;;;5130193;27;20039;-68
2023/08/14 11:26:05;;;;;;;4.88;1.38;;;;;;;;;;5118663;27;20044;-67
2023/08/14 11:28:34;;;;;;;5.55;1.40;;;;;;;;;;5113309;27;20047;-67
2023/08/14 11:31:00;;;;;;;5.68;1.77;;;;;;;;;;5124792;27;20437;-69
2023/08/14 11:33:26;;;;;;;5.18;1.60;;;;;;;;;;5127228;27;20085;-67
2023/08/14 11:35:55;;;;;;;7.65;1.95;;;;;;;;;;5108227;27;20040;-67
2023/08/14 11:38:24;;;;;;;4.90;1.45;;;;;;;;;;5106467;28;20472;-65
2023/08/14 11:40:50;;;;;;;3.20;1.42;;;;;;;;;;5114068;27;20062;-65
2023/08/14 11:43:16;;;;;;;4.32;1.40;;;;;;;;;;5110788;28;20576;-64
2023/08/14 11:45:42;;;;;;;3.20;1.50;;;;;;;;;;5110289;28;20050;-65
2023/08/14 11:48:09;;;;;;;3.25;1.50;;;;;;;;;;5105157;27;20699;-64
2023/08/14 11:50:35;;;;;;;5.63;1.70;;;;;;;;;;5106326;28;20647;-66
2023/08/14 11:53:01;;;;;;;2.50;1.75;;;;;;;;;;5110264;28;20039;-65
2023/08/14 11:55:28;;;;;;;4.20;1.60;;;;;;;;;;5104682;28;20036;-64
2023/08/14 11:57:54;;;;;;;6.70;1.90;;;;;;;;;;5108613;27;20031;-65
2023/08/14 12:00:20;;;;;;;4.57;1.90;;;;;;;;;;5109086;27;20070;-65
2023/08/14 12:02:47;;;;;;;5.43;1.73;;;;;;;;;;5109118;28;20084;-66
2023/08/14 12:05:13;;;;;;;7.07;2.03;;;;;;;;;;5110418;27;20032;-64
2023/08/14 12:07:42;;;;;;;5.05;1.75;;;;;;;;;;5120063;27;20039;-64
2023/08/14 12:10:08;;;;;;;5.38;1.92;;;;;;;;;;5120172;27;20134;-64
2023/08/14 12:12:34;;;;;;;7.35;2.55;;;;;;;;;;5110680;27;20228;-64
2023/08/14 12:15:01;;;;;;;4.78;1.67;;;;;;;;;;5109176;27;20401;-64
2023/08/14 12:17:27;;;;;;;3.85;1.70;;;;;;;;;;5130122;27;20043;-65
2023/08/14 12:19:54;;;;;;;6.82;1.50;;;;;;;;;;5120951;27;20488;-64
2023/08/14 12:22:23;;;;;;;5.93;1.55;;;;;;;;;;5126432;27;20481;-65
2023/08/14 12:24:50;;;;;;;4.63;1.55;;;;;;;;;;5125873;27;20083;-64
2023/08/14 12:27:18;;;;;;;4.13;1.98;;;;;;;;;;5120705;27;20042;-65
2023/08/14 12:29:44;;;;;;;6.53;1.65;;;;;;;;;;5116488;28;20036;-64
2023/08/14 12:32:11;;;;;;;3.92;1.88;;;;;;;;;;5120105;28;20473;-66
2023/08/14 12:34:37;;;;;;;4.30;1.80;;;;;;;;;;5114001;27;20050;-64
2023/08/14 12:37:04;;;;;;;4.60;1.77;;;;;;;;;;5120590;27;20103;-64
2023/08/14 12:39:30;;;;;;;6.18;1.70;;;;;;;;;;5122813;27;20095;-64
2023/08/14 12:41:56;;;;;;;8.10;2.03;;;;;;;;;;5115804;27;20565;-65
2023/08/14 12:44:22;;;;;;;5.07;1.70;;;;;;;;;;5123919;28;20039;-65
2023/08/14 12:46:48;;;;;;;4.75;1.70;;;;;;;;;;5129900;27;20393;-65
2023/08/14 12:49:14;;;;;;;5.30;1.77;;;;;;;;;;5123474;27;20050;-66
2023/08/14 12:51:41;;;;;;;8.32;1.88;;;;;;;;;;5109001;28;20039;-66
2023/08/14 12:54:07;;;;;;;5.15;1.60;;;;;;;;;;5114668;27;20459;-65
2023/08/14 12:56:34;;;;;;;4.35;1.83;;;;;;;;;;5116512;28;20039;-66
2023/08/14 12:59:00;;;;;;;4.82;1.65;;;;;;;;;;5115552;28;20041;-65
2023/08/14 13:01:26;;;;;;;6.10;1.63;;;;;;;;;;5129354;27;20040;-66
2023/08/14 13:03:53;;;;;;;4.47;1.52;;;;;;;;;;5126839;27;20043;-66
2023/08/14 13:06:19;;;;;;;4.15;1.80;;;;;;;;;;5118253;27;20397;-66
2023/08/14 13:08:45;;;;;;;8.55;1.40;;;;;;;;;;5117425;27;20154;-66
2023/08/14 13:11:13;;;;;;;7.53;1.80;;;;;;;;;;5118050;28;20047;-65
2023/08/14 13:13:39;;;;;;;11.10;3.05;;;;;;;;;;5129864;27;20720;-65
2023/08/14 13:16:06;;;;;;;11.52;3.13;;;;;;;;;;5125537;27;20067;-65
2023/08/14 13:18:32;;;;;;;6.63;2.25;;;;;;;;;;5127421;28;20051;-65
2023/08/14 13:20:58;;;;;;;5.57;2.10;;;;;;;;;;5128771;27;20035;-64
2023/08/14 13:23:24;;;;;;;3.80;1.60;;;;;;;;;;5119625;28;20623;-65
2023/08/14 13:25:50;;;;;;;6.35;1.40;;;;;;;;;;5121376;27;20461;-64
2023/08/14 13:28:17;;;;;;;4.90;2.00;;;;;;;;;;5095465;28;20501;-66
2023/08/14 13:30:43;;;;;;;5.13;1.55;;;;;;;;;;5109065;28;20495;-64
2023/08/14 13:33:09;;;;;;;3.65;1.20;;;;;;;;;;5120506;28;20172;-65
2023/08/14 13:35:35;;;;;;;5.18;1.70;;;;;;;;;;5115742;27;20042;-66
2023/08/14 13:38:01;;;;;;;3.35;1.13;;;;;;;;;;5133370;27;20031;-66
2023/08/14 13:40:28;;;;;;;4.63;1.52;;;;;;;;;;5133901;27;20057;-66
2023/08/14 13:42:54;;;;;;;5.55;1.80;;;;;;;;;;5101260;28;20039;-66
2023/08/14 13:45:20;;;;;;;6.07;1.60;;;;;;;;;;5114928;27;20042;-67
2023/08/14 13:47:46;;;;;;;5.68;1.65;;;;;;;;;;5118480;27;20088;-67
2023/08/14 13:50:12;;;;;;;5.00;1.55;;;;;;;;;;5115852;27;20044;-67
2023/08/14 13:52:38;;;;;;;3.88;1.50;;;;;;;;;;5111963;27;20130;-67
2023/08/14 13:55:05;;;;;;;5.57;1.88;;;;;;;;;;5110841;28;20089;-67
2023/08/14 13:57:31;;;;;;;6.00;1.50;;;;;;;;;;5114564;27;20367;-68
2023/08/14 13:59:58;;;;;;;4.47;1.55;;;;;;;;;;5112527;28;20036;-67
2023/08/14 14:02:24;;;;;;;4.88;1.30;;;;;;;;;;5113120;28;20058;-66
2023/08/14 14:04:50;;;;;;;5.57;1.42;;;;;;;;;;5112554;28;20035;-66
2023/08/14 14:07:16;;;;;;;5.22;1.80;;;;;;;;;;5112774;28;20047;-67
2023/08/14 14:09:42;;;;;;;4.25;1.73;;;;;;;;;;5112324;28;20097;-67
2023/08/14 14:12:08;;;;;;;4.40;1.40;;;;;;;;;;5119018;27;20126;-67
2023/08/14 14:14:34;;;;;;;4.63;1.50;;;;;;;;;;5109299;28;20122;-67
2023/08/14 14:17:01;;;;;;;4.40;1.48;;;;;;;;;;5111993;28;20580;-67
2023/08/14 14:19:28;;;;;;;3.33;1.50;;;;;;;;;;5113456;27;20024;-65
2023/08/14 14:21:55;;;;;;;4.13;1.63;;;;;;;;;;5113165;27;20044;-64
2023/08/14 14:24:21;;;;;;;3.53;1.50;;;;;;;;;;5110232;27;20047;-65
2023/08/14 14:26:47;;;;;;;6.05;1.80;;;;;;;;;;5112408;28;20057;-66
2023/08/14 14:29:13;;;;;;;5.15;1.40;;;;;;;;;;5114049;27;20464;-66
2023/08/14 14:31:40;;;;;;;5.43;1.60;;;;;;;;;;5110318;27;20038;-66